Terminal Aerodrome Forecast
Issued by NWS

Home | Current Version | Previous Version | Text Only | Print | Product List | Glossary On
Versions: 1 2 3 4 5 6 7 8 9 10 11 12 13 14 15 16 17 18 19 20 21 22 23 24
779
FTUS44 KLIX 251127
TAFHDC
TAF
KHDC 251127Z 2512/2612 VRB03KT 5SM BR SKC
     FM251400 VRB03KT P6SM SCT015
     FM251500 17007KT P6SM SCT020 BKN035
     FM260100 VRB03KT P6SM SCT040 BKN250
     FM260800 VRB03KT P6SM OVC030
     FM261100 VRB03KT P6SM BKN015=

USA.gov is the U.S. government's official web portal to all federal, state and local government web resources and services.